sensor_id;sensor_type;location;lat;lon;timestamp;pressure;altitude;pressure_sealevel;temperature;humidity
5691;BME280;2870;42.680;23.364;2022-12-18T00:02:08;95893.16;;;8.23;95.30
5691;BME280;2870;42.680;23.364;2022-12-18T00:04:35;95900.97;;;8.06;95.33
5691;BME280;2870;42.680;23.364;2022-12-18T00:07:02;95906.44;;;8.17;95.22
5691;BME280;2870;42.680;23.364;2022-12-18T00:09:28;95896.56;;;8.10;96.23
5691;BME280;2870;42.680;23.364;2022-12-18T00:11:57;95911.63;;;8.50;94.03
5691;BME280;2870;42.680;23.364;2022-12-18T00:14:24;95893.28;;;8.12;94.87
5691;BME280;2870;42.680;23.364;2022-12-18T00:16:51;95903.13;;;7.64;96.57
5691;BME280;2870;42.680;23.364;2022-12-18T00:19:17;95905.63;;;7.67;96.34
5691;BME280;2870;42.680;23.364;2022-12-18T00:21:45;95905.97;;;7.58;95.56
5691;BME280;2870;42.680;23.364;2022-12-18T00:24:12;95916.66;;;7.54;95.62
5691;BME280;2870;42.680;23.364;2022-12-18T00:26:40;95913.69;;;7.47;96.51
5691;BME280;2870;42.680;23.364;2022-12-18T00:29:10;95924.44;;;7.67;96.38
5691;BME280;2870;42.680;23.364;2022-12-18T00:31:40;95918.81;;;7.73;95.75
5691;BME280;2870;42.680;23.364;2022-12-18T00:34:09;95928.84;;;7.57;96.53
5691;BME280;2870;42.680;23.364;2022-12-18T00:36:36;95930.09;;;7.86;94.37
5691;BME280;2870;42.680;23.364;2022-12-18T00:39:04;95929.31;;;7.61;95.34
5691;BME280;2870;42.680;23.364;2022-12-18T00:41:31;95930.97;;;7.09;96.33
5691;BME280;2870;42.680;23.364;2022-12-18T00:44:18;95926.81;;;7.22;95.81
5691;BME280;2870;42.680;23.364;2022-12-18T00:46:46;95926.44;;;7.36;96.62
5691;BME280;2870;42.680;23.364;2022-12-18T00:49:13;95939.47;;;7.58;94.20
5691;BME280;2870;42.680;23.364;2022-12-18T00:51:40;95939.19;;;7.62;94.31
5691;BME280;2870;42.680;23.364;2022-12-18T00:54:07;95945.09;;;7.53;94.36
5691;BME280;2870;42.680;23.364;2022-12-18T00:56:35;95934.44;;;7.21;95.07
5691;BME280;2870;42.680;23.364;2022-12-18T00:59:02;95948.53;;;7.34;96.29
5691;BME280;2870;42.680;23.364;2022-12-18T01:01:31;95954.81;;;7.10;94.96
5691;BME280;2870;42.680;23.364;2022-12-18T01:04:00;95959.91;;;7.42;95.38
5691;BME280;2870;42.680;23.364;2022-12-18T01:06:26;95957.41;;;7.38;95.17
5691;BME280;2870;42.680;23.364;2022-12-18T01:08:54;95962.78;;;6.89;96.16
5691;BME280;2870;42.680;23.364;2022-12-18T01:11:21;95958.47;;;7.30;94.89
5691;BME280;2870;42.680;23.364;2022-12-18T01:13:48;95966.16;;;7.18;95.07
5691;BME280;2870;42.680;23.364;2022-12-18T01:16:16;95965.16;;;7.15;96.63
5691;BME280;2870;42.680;23.364;2022-12-18T01:18:44;95962.31;;;6.80;95.67
5691;BME280;2870;42.680;23.364;2022-12-18T01:21:13;95968.75;;;7.10;94.89
5691;BME280;2870;42.680;23.364;2022-12-18T01:23:40;95972.28;;;7.11;96.37
5691;BME280;2870;42.680;23.364;2022-12-18T01:26:09;95965.66;;;7.14;95.43
5691;BME280;2870;42.680;23.364;2022-12-18T01:28:36;95966.09;;;6.88;95.00
5691;BME280;2870;42.680;23.364;2022-12-18T01:31:14;95970.84;;;6.99;95.69
5691;BME280;2870;42.680;23.364;2022-12-18T01:33:43;95968.59;;;6.91;94.55
5691;BME280;2870;42.680;23.364;2022-12-18T01:36:18;95979.88;;;7.16;95.38
5691;BME280;2870;42.680;23.364;2022-12-18T01:38:46;95977.19;;;6.99;96.21
5691;BME280;2870;42.680;23.364;2022-12-18T01:41:13;95980.28;;;6.84;94.59
5691;BME280;2870;42.680;23.364;2022-12-18T01:43:45;95982.19;;;6.54;95.69
5691;BME280;2870;42.680;23.364;2022-12-18T01:46:13;95988.44;;;6.77;97.53
5691;BME280;2870;42.680;23.364;2022-12-18T01:48:40;95980.06;;;6.82;94.40
5691;BME280;2870;42.680;23.364;2022-12-18T01:51:09;95993.06;;;6.57;94.62
5691;BME280;2870;42.680;23.364;2022-12-18T01:53:39;95987.34;;;6.27;96.12
5691;BME280;2870;42.680;23.364;2022-12-18T01:56:07;95982.53;;;6.22;96.51
5691;BME280;2870;42.680;23.364;2022-12-18T01:58:40;95991.47;;;6.79;96.84
5691;BME280;2870;42.680;23.364;2022-12-18T02:01:09;95992.78;;;6.72;94.75
5691;BME280;2870;42.680;23.364;2022-12-18T02:03:37;95991.75;;;6.75;95.20
5691;BME280;2870;42.680;23.364;2022-12-18T02:06:10;95992.59;;;6.53;94.49
5691;BME280;2870;42.680;23.364;2022-12-18T02:08:48;95997.75;;;6.16;95.36
5691;BME280;2870;42.680;23.364;2022-12-18T02:11:22;96004.09;;;6.05;95.93
5691;BME280;2870;42.680;23.364;2022-12-18T02:13:58;96000.50;;;6.32;95.58
5691;BME280;2870;42.680;23.364;2022-12-18T02:16:33;96004.75;;;6.45;94.58
5691;BME280;2870;42.680;23.364;2022-12-18T02:19:11;96017.16;;;6.55;95.82
5691;BME280;2870;42.680;23.364;2022-12-18T02:21:48;96013.31;;;6.63;93.89
5691;BME280;2870;42.680;23.364;2022-12-18T02:24:27;96024.03;;;6.43;93.87
5691;BME280;2870;42.680;23.364;2022-12-18T02:26:59;96020.53;;;6.14;94.47
5691;BME280;2870;42.680;23.364;2022-12-18T02:29:31;96022.22;;;6.51;95.70
5691;BME280;2870;42.680;23.364;2022-12-18T02:31:59;96016.75;;;5.95;94.93
5691;BME280;2870;42.680;23.364;2022-12-18T02:34:29;96015.00;;;5.92;95.66
5691;BME280;2870;42.680;23.364;2022-12-18T02:37:00;96020.28;;;5.78;96.67
5691;BME280;2870;42.680;23.364;2022-12-18T02:39:29;96022.31;;;6.06;96.00
5691;BME280;2870;42.680;23.364;2022-12-18T02:41:59;96012.22;;;5.92;96.12
5691;BME280;2870;42.680;23.364;2022-12-18T02:44:33;96031.41;;;6.23;95.80
5691;BME280;2870;42.680;23.364;2022-12-18T02:47:00;96039.00;;;6.34;94.53
5691;BME280;2870;42.680;23.364;2022-12-18T02:49:33;96048.38;;;5.86;95.84
5691;BME280;2870;42.680;23.364;2022-12-18T02:52:07;96035.47;;;5.72;96.31
5691;BME280;2870;42.680;23.364;2022-12-18T02:54:47;96028.13;;;5.74;96.76
5691;BME280;2870;42.680;23.364;2022-12-18T02:57:24;96023.06;;;5.95;97.02
5691;BME280;2870;42.680;23.364;2022-12-18T02:59:58;96038.78;;;6.09;96.14
5691;BME280;2870;42.680;23.364;2022-12-18T03:02:35;96037.25;;;6.14;95.40
5691;BME280;2870;42.680;23.364;2022-12-18T03:05:09;96047.38;;;5.95;95.28
5691;BME280;2870;42.680;23.364;2022-12-18T03:07:42;96051.66;;;5.51;96.67
5691;BME280;2870;42.680;23.364;2022-12-18T03:10:13;96058.22;;;5.59;97.31
5691;BME280;2870;42.680;23.364;2022-12-18T03:12:45;96054.94;;;5.77;96.54
5691;BME280;2870;42.680;23.364;2022-12-18T03:15:18;96067.38;;;5.88;96.07
5691;BME280;2870;42.680;23.364;2022-12-18T03:17:51;96061.81;;;6.32;95.15
5691;BME280;2870;42.680;23.364;2022-12-18T03:20:21;96059.50;;;6.42;94.37
5691;BME280;2870;42.680;23.364;2022-12-18T03:22:52;96076.25;;;5.97;95.03
5691;BME280;2870;42.680;23.364;2022-12-18T03:25:20;96068.38;;;6.18;93.84
5691;BME280;2870;42.680;23.364;2022-12-18T03:27:51;96069.41;;;5.87;95.05
5691;BME280;2870;42.680;23.364;2022-12-18T03:30:20;96069.44;;;6.04;95.84
5691;BME280;2870;42.680;23.364;2022-12-18T03:32:51;96072.44;;;6.06;94.75
5691;BME280;2870;42.680;23.364;2022-12-18T03:35:22;96079.53;;;6.24;94.65
5691;BME280;2870;42.680;23.364;2022-12-18T03:37:50;96088.38;;;6.39;94.43
5691;BME280;2870;42.680;23.364;2022-12-18T03:40:20;96088.63;;;5.79;94.38
5691;BME280;2870;42.680;23.364;2022-12-18T03:42:51;96083.34;;;6.15;93.67
5691;BME280;2870;42.680;23.364;2022-12-18T03:45:22;96080.31;;;6.07;94.43
5691;BME280;2870;42.680;23.364;2022-12-18T03:47:59;96094.72;;;5.95;93.75
5691;BME280;2870;42.680;23.364;2022-12-18T03:50:36;96101.44;;;5.38;93.86
5691;BME280;2870;42.680;23.364;2022-12-18T03:53:14;96103.53;;;5.59;93.62
5691;BME280;2870;42.680;23.364;2022-12-18T03:55:44;96106.91;;;5.92;92.42
5691;BME280;2870;42.680;23.364;2022-12-18T03:58:15;96110.59;;;5.55;92.18
5691;BME280;2870;42.680;23.364;2022-12-18T04:00:44;96109.38;;;5.78;91.72
5691;BME280;2870;42.680;23.364;2022-12-18T04:03:12;96117.03;;;6.17;90.71
5691;BME280;2870;42.680;23.364;2022-12-18T04:05:42;96117.53;;;6.27;89.65
5691;BME280;2870;42.680;23.364;2022-12-18T04:08:10;96122.31;;;5.87;91.01
5691;BME280;2870;42.680;23.364;2022-12-18T04:10:36;96118.78;;;5.92;92.85
5691;BME280;2870;42.680;23.364;2022-12-18T04:13:03;96118.22;;;5.71;92.02
5691;BME280;2870;42.680;23.364;2022-12-18T04:15:34;96121.81;;;5.94;90.77
5691;BME280;2870;42.680;23.364;2022-12-18T04:18:02;96136.72;;;5.85;91.26
5691;BME280;2870;42.680;23.364;2022-12-18T04:20:29;96145.41;;;6.16;90.98
5691;BME280;2870;42.680;23.364;2022-12-18T04:22:55;96137.28;;;6.01;90.80
5691;BME280;2870;42.680;23.364;2022-12-18T04:25:22;96146.91;;;6.33;88.87
5691;BME280;2870;42.680;23.364;2022-12-18T04:27:49;96139.00;;;5.81;89.12
5691;BME280;2870;42.680;23.364;2022-12-18T04:30:16;96141.84;;;6.04;88.60
5691;BME280;2870;42.680;23.364;2022-12-18T04:32:44;96151.38;;;5.64;89.56
5691;BME280;2870;42.680;23.364;2022-12-18T04:35:11;96148.81;;;5.60;91.09
5691;BME280;2870;42.680;23.364;2022-12-18T04:37:38;96146.09;;;5.82;90.48
5691;BME280;2870;42.680;23.364;2022-12-18T04:40:05;96150.44;;;5.95;89.02
5691;BME280;2870;42.680;23.364;2022-12-18T04:42:33;96162.59;;;5.92;88.87
5691;BME280;2870;42.680;23.364;2022-12-18T04:44:59;96157.03;;;6.03;88.51
5691;BME280;2870;42.680;23.364;2022-12-18T04:47:26;96168.44;;;6.22;88.10
5691;BME280;2870;42.680;23.364;2022-12-18T04:49:54;96170.47;;;6.10;86.76
5691;BME280;2870;42.680;23.364;2022-12-18T04:52:21;96169.88;;;5.83;87.15
5691;BME280;2870;42.680;23.364;2022-12-18T04:54:48;96177.00;;;5.90;87.57
5691;BME280;2870;42.680;23.364;2022-12-18T04:57:15;96177.91;;;5.53;87.04
5691;BME280;2870;42.680;23.364;2022-12-18T04:59:43;96178.47;;;5.74;87.80
5691;BME280;2870;42.680;23.364;2022-12-18T05:02:10;96184.50;;;5.67;87.01
5691;BME280;2870;42.680;23.364;2022-12-18T05:04:37;96187.16;;;5.99;86.52
5691;BME280;2870;42.680;23.364;2022-12-18T05:07:06;96191.25;;;6.15;84.80
5691;BME280;2870;42.680;23.364;2022-12-18T05:09:33;96191.72;;;5.96;85.72
5691;BME280;2870;42.680;23.364;2022-12-18T05:12:00;96191.88;;;5.70;85.12
5691;BME280;2870;42.680;23.364;2022-12-18T05:14:26;96198.56;;;6.12;86.54
5691;BME280;2870;42.680;23.364;2022-12-18T05:16:54;96201.34;;;6.06;85.12
5691;BME280;2870;42.680;23.364;2022-12-18T05:19:21;96215.19;;;5.84;85.50
5691;BME280;2870;42.680;23.364;2022-12-18T05:21:48;96219.91;;;5.61;86.12
5691;BME280;2870;42.680;23.364;2022-12-18T05:24:17;96218.59;;;5.45;87.67
5691;BME280;2870;42.680;23.364;2022-12-18T05:26:43;96220.19;;;5.63;86.44
5691;BME280;2870;42.680;23.364;2022-12-18T05:29:10;96221.41;;;5.45;86.73
5691;BME280;2870;42.680;23.364;2022-12-18T05:31:37;96229.72;;;5.40;86.85
5691;BME280;2870;42.680;23.364;2022-12-18T05:34:05;96223.31;;;5.22;87.99
5691;BME280;2870;42.680;23.364;2022-12-18T05:36:32;96214.41;;;5.18;88.41
5691;BME280;2870;42.680;23.364;2022-12-18T05:38:58;96229.47;;;5.49;88.41
5691;BME280;2870;42.680;23.364;2022-12-18T05:41:27;96239.97;;;5.76;87.41
5691;BME280;2870;42.680;23.364;2022-12-18T05:43:55;96247.47;;;6.07;87.00
5691;BME280;2870;42.680;23.364;2022-12-18T05:46:21;96243.97;;;5.58;85.26
5691;BME280;2870;42.680;23.364;2022-12-18T05:48:49;96237.47;;;5.24;85.71
5691;BME280;2870;42.680;23.364;2022-12-18T05:51:19;96230.56;;;5.14;86.65
5691;BME280;2870;42.680;23.364;2022-12-18T05:53:47;96242.59;;;5.37;86.82
5691;BME280;2870;42.680;23.364;2022-12-18T05:56:17;96250.19;;;5.42;85.99
5691;BME280;2870;42.680;23.364;2022-12-18T05:58:46;96248.13;;;4.89;86.42
5691;BME280;2870;42.680;23.364;2022-12-18T06:01:15;96248.13;;;5.31;86.36
5691;BME280;2870;42.680;23.364;2022-12-18T06:03:43;96259.41;;;5.11;86.39
5691;BME280;2870;42.680;23.364;2022-12-18T06:06:14;96258.22;;;5.23;86.31
5691;BME280;2870;42.680;23.364;2022-12-18T06:08:41;96257.91;;;5.21;86.30
5691;BME280;2870;42.680;23.364;2022-12-18T06:11:08;96256.47;;;5.31;85.64
5691;BME280;2870;42.680;23.364;2022-12-18T06:13:34;96268.78;;;5.62;86.54
5691;BME280;2870;42.680;23.364;2022-12-18T06:16:03;96264.47;;;5.67;85.47
5691;BME280;2870;42.680;23.364;2022-12-18T06:18:30;96265.53;;;5.26;85.17
5691;BME280;2870;42.680;23.364;2022-12-18T06:20:58;96272.00;;;5.49;84.92
5691;BME280;2870;42.680;23.364;2022-12-18T06:23:26;96270.91;;;5.36;84.95
5691;BME280;2870;42.680;23.364;2022-12-18T06:25:53;96272.91;;;5.83;85.54
5691;BME280;2870;42.680;23.364;2022-12-18T06:28:20;96275.56;;;5.55;82.99
5691;BME280;2870;42.680;23.364;2022-12-18T06:30:48;96279.53;;;5.43;84.52
5691;BME280;2870;42.680;23.364;2022-12-18T06:33:16;96288.56;;;5.27;85.27
5691;BME280;2870;42.680;23.364;2022-12-18T06:35:44;96285.69;;;5.53;85.84
5691;BME280;2870;42.680;23.364;2022-12-18T06:38:11;96299.78;;;5.44;84.91
5691;BME280;2870;42.680;23.364;2022-12-18T06:40:38;96294.50;;;5.46;84.18
5691;BME280;2870;42.680;23.364;2022-12-18T06:43:05;96300.94;;;5.69;84.50
5691;BME280;2870;42.680;23.364;2022-12-18T06:45:33;96302.44;;;5.64;83.67
5691;BME280;2870;42.680;23.364;2022-12-18T06:47:59;96303.41;;;5.61;85.40
5691;BME280;2870;42.680;23.364;2022-12-18T06:50:28;96306.53;;;5.69;84.38
5691;BME280;2870;42.680;23.364;2022-12-18T06:52:55;96310.78;;;5.64;84.96
5691;BME280;2870;42.680;23.364;2022-12-18T06:55:22;96303.22;;;5.70;83.58
5691;BME280;2870;42.680;23.364;2022-12-18T06:57:49;96307.81;;;5.73;82.45
5691;BME280;2870;42.680;23.364;2022-12-18T07:00:16;96309.66;;;5.39;83.12
5691;BME280;2870;42.680;23.364;2022-12-18T07:02:43;96314.31;;;5.59;83.81
5691;BME280;2870;42.680;23.364;2022-12-18T07:05:10;96312.97;;;5.92;81.02
5691;BME280;2870;42.680;23.364;2022-12-18T07:07:38;96319.94;;;5.70;80.23
5691;BME280;2870;42.680;23.364;2022-12-18T07:10:05;96321.69;;;5.25;81.25
5691;BME280;2870;42.680;23.364;2022-12-18T07:12:32;96325.16;;;5.51;80.82
5691;BME280;2870;42.680;23.364;2022-12-18T07:14:59;96327.13;;;5.45;81.64
5691;BME280;2870;42.680;23.364;2022-12-18T07:17:26;96323.94;;;5.21;81.42
5691;BME280;2870;42.680;23.364;2022-12-18T07:19:53;96328.94;;;5.54;80.92
5691;BME280;2870;42.680;23.364;2022-12-18T07:22:20;96328.66;;;5.95;81.34
5691;BME280;2870;42.680;23.364;2022-12-18T07:24:48;96331.22;;;5.98;80.12
5691;BME280;2870;42.680;23.364;2022-12-18T07:27:15;96337.25;;;5.48;80.26
5691;BME280;2870;42.680;23.364;2022-12-18T07:29:42;96332.38;;;5.75;81.97
5691;BME280;2870;42.680;23.364;2022-12-18T07:32:08;96338.34;;;5.19;81.81
5691;BME280;2870;42.680;23.364;2022-12-18T07:34:35;96339.34;;;5.16;82.51
5691;BME280;2870;42.680;23.364;2022-12-18T07:37:02;96340.59;;;4.84;84.19
5691;BME280;2870;42.680;23.364;2022-12-18T07:39:29;96342.59;;;4.83;83.72
5691;BME280;2870;42.680;23.364;2022-12-18T07:41:57;96350.53;;;4.96;84.55
5691;BME280;2870;42.680;23.364;2022-12-18T07:44:41;96354.56;;;5.26;83.80
5691;BME280;2870;42.680;23.364;2022-12-18T07:47:08;96356.50;;;5.15;84.99
5691;BME280;2870;42.680;23.364;2022-12-18T07:49:34;96361.03;;;5.49;83.03
5691;BME280;2870;42.680;23.364;2022-12-18T07:52:01;96356.16;;;4.75;84.40
5691;BME280;2870;42.680;23.364;2022-12-18T07:54:28;96359.38;;;4.68;85.44
5691;BME280;2870;42.680;23.364;2022-12-18T07:56:56;96361.69;;;4.44;86.62
5691;BME280;2870;42.680;23.364;2022-12-18T07:59:24;96361.72;;;5.01;84.65
5691;BME280;2870;42.680;23.364;2022-12-18T08:01:50;96377.53;;;5.21;83.99
5691;BME280;2870;42.680;23.364;2022-12-18T08:04:17;96375.75;;;5.18;83.94
5691;BME280;2870;42.680;23.364;2022-12-18T08:06:44;96375.34;;;4.99;84.91
5691;BME280;2870;42.680;23.364;2022-12-18T08:09:11;96384.19;;;5.29;84.30
5691;BME280;2870;42.680;23.364;2022-12-18T08:11:38;96380.31;;;5.53;82.68
5691;BME280;2870;42.680;23.364;2022-12-18T08:14:06;96392.81;;;5.69;81.85
5691;BME280;2870;42.680;23.364;2022-12-18T08:16:33;96397.81;;;5.22;83.33
5691;BME280;2870;42.680;23.364;2022-12-18T08:19:00;96401.19;;;5.05;84.92
5691;BME280;2870;42.680;23.364;2022-12-18T08:21:28;96403.72;;;4.77;85.06
5691;BME280;2870;42.680;23.364;2022-12-18T08:23:56;96408.44;;;5.23;86.64
5691;BME280;2870;42.680;23.364;2022-12-18T08:26:25;96412.09;;;4.83;85.08
5691;BME280;2870;42.680;23.364;2022-12-18T08:28:53;96410.91;;;4.90;84.55
5691;BME280;2870;42.680;23.364;2022-12-18T08:31:22;96414.81;;;5.03;84.40
5691;BME280;2870;42.680;23.364;2022-12-18T08:33:50;96417.66;;;5.09;83.88
5691;BME280;2870;42.680;23.364;2022-12-18T08:36:18;96421.44;;;5.38;82.88
5691;BME280;2870;42.680;23.364;2022-12-18T08:38:45;96417.00;;;5.51;81.86
5691;BME280;2870;42.680;23.364;2022-12-18T08:41:13;96420.84;;;5.59;81.31
5691;BME280;2870;42.680;23.364;2022-12-18T08:43:40;96416.97;;;5.89;82.07
5691;BME280;2870;42.680;23.364;2022-12-18T08:46:27;96417.69;;;5.41;81.59
5691;BME280;2870;42.680;23.364;2022-12-18T08:48:57;96417.13;;;5.05;81.81
5691;BME280;2870;42.680;23.364;2022-12-18T08:51:24;96432.81;;;4.82;82.81
5691;BME280;2870;42.680;23.364;2022-12-18T08:53:51;96435.84;;;5.10;83.09
5691;BME280;2870;42.680;23.364;2022-12-18T08:56:18;96435.94;;;5.47;82.30
5691;BME280;2870;42.680;23.364;2022-12-18T08:58:44;96430.16;;;5.51;80.68
5691;BME280;2870;42.680;23.364;2022-12-18T09:01:12;96420.28;;;5.55;80.95
5691;BME280;2870;42.680;23.364;2022-12-18T09:03:41;96424.13;;;5.26;81.21
5691;BME280;2870;42.680;23.364;2022-12-18T09:06:08;96421.97;;;4.84;80.61
5691;BME280;2870;42.680;23.364;2022-12-18T09:08:35;96415.81;;;5.00;80.69
5691;BME280;2870;42.680;23.364;2022-12-18T09:11:03;96425.63;;;5.22;80.93
5691;BME280;2870;42.680;23.364;2022-12-18T09:13:30;96418.47;;;5.15;78.69
5691;BME280;2870;42.680;23.364;2022-12-18T09:15:57;96423.25;;;5.41;79.68
5691;BME280;2870;42.680;23.364;2022-12-18T09:18:24;96421.59;;;5.60;79.54
5691;BME280;2870;42.680;23.364;2022-12-18T09:20:52;96424.66;;;5.99;77.60
5691;BME280;2870;42.680;23.364;2022-12-18T09:23:19;96419.91;;;5.68;76.88
5691;BME280;2870;42.680;23.364;2022-12-18T09:25:47;96428.56;;;5.44;77.53
5691;BME280;2870;42.680;23.364;2022-12-18T09:28:15;96423.97;;;5.36;76.02
5691;BME280;2870;42.680;23.364;2022-12-18T09:30:45;96427.06;;;5.80;77.01
5691;BME280;2870;42.680;23.364;2022-12-18T09:33:13;96413.28;;;5.66;77.53
5691;BME280;2870;42.680;23.364;2022-12-18T09:35:41;96420.69;;;5.74;75.93
5691;BME280;2870;42.680;23.364;2022-12-18T09:38:12;96421.22;;;5.78;75.90
5691;BME280;2870;42.680;23.364;2022-12-18T09:40:43;96425.56;;;5.48;75.41
5691;BME280;2870;42.680;23.364;2022-12-18T09:43:15;96433.28;;;5.64;76.07
5691;BME280;2870;42.680;23.364;2022-12-18T09:45:44;96428.03;;;6.09;76.37
5691;BME280;2870;42.680;23.364;2022-12-18T09:48:17;96422.94;;;5.70;75.11
5691;BME280;2870;42.680;23.364;2022-12-18T09:50:46;96430.00;;;6.03;76.33
5691;BME280;2870;42.680;23.364;2022-12-18T09:53:19;96430.59;;;5.44;76.39
5691;BME280;2870;42.680;23.364;2022-12-18T09:55:49;96422.38;;;5.98;76.96
5691;BME280;2870;42.680;23.364;2022-12-18T09:58:24;96429.06;;;5.74;75.20
5691;BME280;2870;42.680;23.364;2022-12-18T10:00:53;96421.34;;;5.95;75.85
5691;BME280;2870;42.680;23.364;2022-12-18T10:03:21;96420.28;;;6.30;77.29
5691;BME280;2870;42.680;23.364;2022-12-18T10:05:54;96421.59;;;6.46;74.44
5691;BME280;2870;42.680;23.364;2022-12-18T10:08:34;96430.06;;;6.14;74.06
5691;BME280;2870;42.680;23.364;2022-12-18T10:11:19;96435.31;;;6.01;71.90
5691;BME280;2870;42.680;23.364;2022-12-18T10:13:52;96433.53;;;6.52;73.39
5691;BME280;2870;42.680;23.364;2022-12-18T10:16:27;96425.16;;;6.52;71.15
5691;BME280;2870;42.680;23.364;2022-12-18T10:19:20;96425.22;;;6.74;72.68
5691;BME280;2870;42.680;23.364;2022-12-18T10:21:55;96428.75;;;6.69;70.53
5691;BME280;2870;42.680;23.364;2022-12-18T10:24:32;96429.69;;;6.44;71.25
5691;BME280;2870;42.680;23.364;2022-12-18T10:27:11;96422.66;;;6.54;71.51
5691;BME280;2870;42.680;23.364;2022-12-18T10:29:39;96436.03;;;6.44;70.81
5691;BME280;2870;42.680;23.364;2022-12-18T10:32:06;96427.28;;;6.85;70.06
5691;BME280;2870;42.680;23.364;2022-12-18T10:34:33;96426.28;;;6.77;72.93
5691;BME280;2870;42.680;23.364;2022-12-18T10:37:03;96431.16;;;7.15;71.35
5691;BME280;2870;42.680;23.364;2022-12-18T10:39:34;96427.53;;;6.70;70.37
5691;BME280;2870;42.680;23.364;2022-12-18T10:42:10;96426.56;;;6.19;70.91
5691;BME280;2870;42.680;23.364;2022-12-18T10:44:38;96426.31;;;6.23;71.39
5691;BME280;2870;42.680;23.364;2022-12-18T10:47:10;96415.66;;;6.16;72.15
5691;BME280;2870;42.680;23.364;2022-12-18T10:49:47;96419.44;;;6.18;73.29
5691;BME280;2870;42.680;23.364;2022-12-18T10:52:17;96413.06;;;6.12;73.25
5691;BME280;2870;42.680;23.364;2022-12-18T10:54:51;96423.13;;;6.41;72.56
5691;BME280;2870;42.680;23.364;2022-12-18T10:57:32;96424.22;;;6.66;72.65
5691;BME280;2870;42.680;23.364;2022-12-18T11:00:19;96423.19;;;6.69;72.18
5691;BME280;2870;42.680;23.364;2022-12-18T11:02:47;96423.75;;;6.84;70.81
5691;BME280;2870;42.680;23.364;2022-12-18T11:05:28;96418.09;;;6.62;70.85
5691;BME280;2870;42.680;23.364;2022-12-18T11:07:56;96416.13;;;6.79;74.10
5691;BME280;2870;42.680;23.364;2022-12-18T11:10:28;96422.50;;;7.02;73.59
5691;BME280;2870;42.680;23.364;2022-12-18T11:13:08;96422.69;;;6.65;71.95
5691;BME280;2870;42.680;23.364;2022-12-18T11:15:35;96422.03;;;7.04;73.92
5691;BME280;2870;42.680;23.364;2022-12-18T11:18:02;96415.72;;;6.32;71.77
5691;BME280;2870;42.680;23.364;2022-12-18T11:20:31;96417.50;;;6.35;71.23
5691;BME280;2870;42.680;23.364;2022-12-18T11:23:01;96425.94;;;6.58;71.52
5691;BME280;2870;42.680;23.364;2022-12-18T11:25:32;96417.75;;;6.32;70.94
5691;BME280;2870;42.680;23.364;2022-12-18T11:28:01;96431.06;;;6.11;71.57
5691;BME280;2870;42.680;23.364;2022-12-18T11:30:29;96423.81;;;6.30;71.91
5691;BME280;2870;42.680;23.364;2022-12-18T11:32:59;96431.03;;;6.59;72.15
5691;BME280;2870;42.680;23.364;2022-12-18T11:35:39;96427.63;;;7.09;71.26
5691;BME280;2870;42.680;23.364;2022-12-18T11:38:15;96440.78;;;6.92;69.56
5691;BME280;2870;42.680;23.364;2022-12-18T11:40:48;96429.38;;;7.07;71.13
5691;BME280;2870;42.680;23.364;2022-12-18T11:43:23;96421.53;;;7.16;70.53
5691;BME280;2870;42.680;23.364;2022-12-18T11:45:55;96440.31;;;7.16;69.78
5691;BME280;2870;42.680;23.364;2022-12-18T11:48:26;96436.06;;;6.50;70.65
5691;BME280;2870;42.680;23.364;2022-12-18T11:50:55;96431.41;;;6.24;70.96
5691;BME280;2870;42.680;23.364;2022-12-18T11:53:24;96428.34;;;6.22;71.21
5691;BME280;2870;42.680;23.364;2022-12-18T11:56:00;96432.91;;;6.25;70.64
5691;BME280;2870;42.680;23.364;2022-12-18T11:58:46;96430.72;;;6.52;71.80
5691;BME280;2870;42.680;23.364;2022-12-18T12:01:27;96426.25;;;6.71;70.69
5691;BME280;2870;42.680;23.364;2022-12-18T12:04:27;96426.53;;;6.79;70.62
5691;BME280;2870;42.680;23.364;2022-12-18T12:07:06;96419.28;;;6.38;70.85
5691;BME280;2870;42.680;23.364;2022-12-18T12:09:47;96431.78;;;6.54;70.73
5691;BME280;2870;42.680;23.364;2022-12-18T12:12:29;96429.59;;;6.21;71.39
5691;BME280;2870;42.680;23.364;2022-12-18T12:15:19;96425.00;;;6.18;70.97
5691;BME280;2870;42.680;23.364;2022-12-18T12:17:53;96428.81;;;6.15;70.69
5691;BME280;2870;42.680;23.364;2022-12-18T12:20:25;96431.28;;;6.02;71.49
5691;BME280;2870;42.680;23.364;2022-12-18T12:23:01;96432.22;;;6.36;71.29
5691;BME280;2870;42.680;23.364;2022-12-18T12:25:37;96425.19;;;6.63;70.77
5691;BME280;2870;42.680;23.364;2022-12-18T12:28:17;96425.38;;;6.37;69.87
5691;BME280;2870;42.680;23.364;2022-12-18T12:30:55;96431.69;;;6.32;71.06
5691;BME280;2870;42.680;23.364;2022-12-18T12:33:36;96442.97;;;6.71;71.45
5691;BME280;2870;42.680;23.364;2022-12-18T12:36:12;96447.38;;;7.06;71.48
5691;BME280;2870;42.680;23.364;2022-12-18T12:38:43;96444.41;;;6.44;69.00
5691;BME280;2870;42.680;23.364;2022-12-18T12:41:13;96439.91;;;6.69;72.53
5691;BME280;2870;42.680;23.364;2022-12-18T12:43:59;96433.34;;;6.67;70.14
5691;BME280;2870;42.680;23.364;2022-12-18T12:46:31;96438.75;;;7.04;69.73
5691;BME280;2870;42.680;23.364;2022-12-18T12:49:02;96428.72;;;6.58;68.89
5691;BME280;2870;42.680;23.364;2022-12-18T12:51:32;96440.41;;;6.62;71.12
5691;BME280;2870;42.680;23.364;2022-12-18T12:54:02;96440.81;;;6.32;71.50
5691;BME280;2870;42.680;23.364;2022-12-18T12:56:39;96444.00;;;6.79;72.29
5691;BME280;2870;42.680;23.364;2022-12-18T12:59:15;96441.38;;;6.48;70.27
5691;BME280;2870;42.680;23.364;2022-12-18T13:01:52;96451.16;;;6.26;70.87
5691;BME280;2870;42.680;23.364;2022-12-18T13:04:26;96453.63;;;6.13;71.59
5691;BME280;2870;42.680;23.364;2022-12-18T13:07:00;96451.16;;;6.26;71.66
5691;BME280;2870;42.680;23.364;2022-12-18T13:09:30;96459.09;;;6.45;71.33
5691;BME280;2870;42.680;23.364;2022-12-18T13:12:02;96465.38;;;6.94;72.74
5691;BME280;2870;42.680;23.364;2022-12-18T13:14:48;96461.69;;;6.54;70.52
5691;BME280;2870;42.680;23.364;2022-12-18T13:17:17;96467.69;;;6.35;70.70
5691;BME280;2870;42.680;23.364;2022-12-18T13:19:51;96469.16;;;6.25;70.84
5691;BME280;2870;42.680;23.364;2022-12-18T13:22:22;96466.94;;;6.46;72.28
5691;BME280;2870;42.680;23.364;2022-12-18T13:24:50;96473.09;;;6.61;70.14
5691;BME280;2870;42.680;23.364;2022-12-18T13:27:55;96474.03;;;6.36;71.01
5691;BME280;2870;42.680;23.364;2022-12-18T13:30:54;96484.19;;;6.45;70.69
5691;BME280;2870;42.680;23.364;2022-12-18T13:33:39;96486.19;;;6.38;71.16
5691;BME280;2870;42.680;23.364;2022-12-18T13:36:13;96481.16;;;6.48;71.30
5691;BME280;2870;42.680;23.364;2022-12-18T13:38:41;96483.28;;;6.16;71.14
5691;BME280;2870;42.680;23.364;2022-12-18T13:41:24;96485.03;;;6.62;71.92